Time;durP1;ratioP1;P1;durP2;ratioP2;P2;SDS_P1;SDS_P2;PMS_P1;PMS_P2;Temp;Humidity;BMP_temperature;BMP_pressure;BME280_temperature;BME280_humidity;BME280_pressure;Samples;Min_cycle;Max_cycle;Signal;HPM_P1;HPM_P2
2024/01/05 00:01:38;;;;;;;24.02;12.73;;;3.90;99.90;;;;;;5049630;28;20087;-60
2024/01/05 00:04:03;;;;;;;20.20;11.23;;;3.90;99.90;;;;;;5065670;28;20121;-59
2024/01/05 00:06:29;;;;;;;21.20;12.45;;;3.90;99.90;;;;;;5067185;28;20048;-60
2024/01/05 00:08:55;;;;;;;20.20;11.50;;;3.90;99.90;;;;;;5059459;28;20305;-60
2024/01/05 00:11:22;;;;;;;23.95;11.88;;;3.90;99.90;;;;;;5033965;28;20073;-60
2024/01/05 00:13:48;;;;;;;19.85;11.88;;;3.80;99.90;;;;;;5046119;28;20116;-59
2024/01/05 00:16:19;;;;;;;21.55;12.32;;;3.80;99.90;;;;;;5044320;28;20052;-57
2024/01/05 00:18:45;;;;;;;24.25;12.02;;;3.80;99.90;;;;;;5039173;28;20044;-58
2024/01/05 00:21:29;;;;;;;21.38;12.52;;;3.80;99.90;;;;;;5049728;28;20102;-58
2024/01/05 00:23:56;;;;;;;19.55;11.70;;;3.80;99.90;;;;;;5031186;28;20076;-59
2024/01/05 00:26:22;;;;;;;26.58;14.13;;;3.70;99.90;;;;;;5044810;28;20195;-58
2024/01/05 00:28:50;;;;;;;25.85;14.23;;;3.70;99.90;;;;;;5046570;28;20115;-57
2024/01/05 00:31:16;;;;;;;20.05;13.52;;;3.70;99.90;;;;;;5043955;28;20045;-59
2024/01/05 00:33:42;;;;;;;25.73;13.90;;;3.70;99.90;;;;;;5051267;28;20039;-58
2024/01/05 00:36:09;;;;;;;24.27;13.57;;;3.60;99.90;;;;;;5051811;28;20435;-59
2024/01/05 00:38:36;;;;;;;24.40;14.05;;;3.70;99.90;;;;;;5067342;28;20096;-58
2024/01/05 00:41:02;;;;;;;26.45;15.88;;;3.70;99.90;;;;;;5059886;28;20044;-59
2024/01/05 00:43:28;;;;;;;29.30;15.13;;;3.60;99.90;;;;;;5036348;28;20040;-58
2024/01/05 00:45:55;;;;;;;23.38;14.45;;;3.60;99.90;;;;;;5045879;28;20044;-58
2024/01/05 00:48:21;;;;;;;31.23;16.15;;;3.70;99.90;;;;;;5050740;28;20037;-59
2024/01/05 00:50:47;;;;;;;24.00;15.10;;;3.70;99.90;;;;;;5047881;28;20036;-58
2024/01/05 00:53:13;;;;;;;25.65;15.05;;;3.60;99.90;;;;;;5066748;28;20328;-58
2024/01/05 00:55:39;;;;;;;23.40;15.23;;;3.60;99.90;;;;;;5051088;28;20099;-58
2024/01/05 00:58:05;;;;;;;24.40;15.43;;;3.60;99.90;;;;;;5048432;28;20095;-58
2024/01/05 01:00:31;;;;;;;25.48;15.32;;;3.60;99.90;;;;;;5047592;28;20043;-59
2024/01/05 01:02:57;;;;;;;26.40;15.05;;;3.60;99.90;;;;;;5052560;28;20082;-59
2024/01/05 01:05:23;;;;;;;31.52;16.15;;;3.60;99.90;;;;;;5030320;28;20036;-59
2024/01/05 01:07:48;;;;;;;28.23;16.70;;;3.60;99.90;;;;;;5046626;28;20123;-59
2024/01/05 01:10:14;;;;;;;32.20;15.95;;;3.60;99.90;;;;;;5048958;28;20094;-59
2024/01/05 01:12:40;;;;;;;25.63;15.05;;;3.60;99.90;;;;;;5037855;28;20396;-59
2024/01/05 01:15:09;;;;;;;27.40;16.58;;;3.60;99.90;;;;;;5051704;28;20036;-59
2024/01/05 01:17:35;;;;;;;26.55;15.48;;;3.60;99.90;;;;;;5050185;28;20621;-58
2024/01/05 01:20:01;;;;;;;27.63;14.65;;;3.60;99.90;;;;;;5051912;28;20047;-58
2024/01/05 01:22:27;;;;;;;32.10;16.25;;;3.60;99.90;;;;;;5065975;28;20040;-59
2024/01/05 01:24:53;;;;;;;29.90;17.08;;;3.60;99.90;;;;;;5048480;28;20120;-59
2024/01/05 01:27:19;;;;;;;27.17;15.68;;;3.60;99.90;;;;;;5051475;28;20147;-57
2024/01/05 01:29:44;;;;;;;36.45;17.27;;;3.60;99.90;;;;;;5031327;28;20214;-59
2024/01/05 01:32:10;;;;;;;28.08;15.10;;;3.70;99.90;;;;;;5032481;28;20059;-59
2024/01/05 01:34:38;;;;;;;28.27;16.70;;;3.60;99.90;;;;;;5058884;28;20135;-58
2024/01/05 01:37:04;;;;;;;26.23;16.35;;;3.70;99.90;;;;;;5065494;28;20033;-58
2024/01/05 01:39:30;;;;;;;27.70;16.73;;;3.60;99.90;;;;;;5035831;28;20171;-58
2024/01/05 01:41:56;;;;;;;27.88;16.17;;;3.60;99.90;;;;;;5032395;28;20052;-58
2024/01/05 01:44:22;;;;;;;32.30;17.58;;;3.60;99.90;;;;;;5050074;28;20051;-59
2024/01/05 01:46:50;;;;;;;32.90;16.40;;;3.50;99.90;;;;;;5045320;28;20044;-58
2024/01/05 01:49:16;;;;;;;30.88;17.17;;;3.50;99.90;;;;;;5048095;28;20195;-59
2024/01/05 01:51:43;;;;;;;28.35;17.42;;;3.60;99.90;;;;;;5060401;28;20067;-58
2024/01/05 01:54:09;;;;;;;32.72;17.33;;;3.60;99.90;;;;;;5037629;28;20400;-58
2024/01/05 01:56:36;;;;;;;32.33;16.50;;;3.60;99.90;;;;;;5050048;28;20121;-59
2024/01/05 01:59:03;;;;;;;36.80;19.20;;;3.50;99.90;;;;;;5060473;28;20198;-59
2024/01/05 02:01:29;;;;;;;32.75;18.83;;;3.50;99.90;;;;;;5035855;28;20048;-59
2024/01/05 02:03:55;;;;;;;32.17;17.45;;;3.60;99.90;;;;;;5049176;28;20374;-59
2024/01/05 02:06:20;;;;;;;31.17;18.10;;;3.60;99.90;;;;;;5033361;28;20477;-59
2024/01/05 02:08:47;;;;;;;33.78;17.40;;;3.50;99.90;;;;;;5040468;28;20141;-59
2024/01/05 02:11:16;;;;;;;35.15;18.05;;;3.50;99.90;;;;;;5058749;28;20071;-59
2024/01/05 02:13:43;;;;;;;30.73;17.73;;;3.60;99.90;;;;;;5044425;28;20047;-59
2024/01/05 02:16:09;;;;;;;35.03;18.17;;;3.60;99.90;;;;;;5048262;28;20036;-59
2024/01/05 02:18:35;;;;;;;30.75;17.73;;;3.50;99.90;;;;;;5045445;28;20036;-58
2024/01/05 02:21:03;;;;;;;31.02;17.70;;;3.60;99.90;;;;;;5047418;28;20098;-59
2024/01/05 02:23:30;;;;;;;33.00;19.02;;;3.50;99.90;;;;;;5033930;28;20058;-58
2024/01/05 02:25:57;;;;;;;33.53;18.60;;;3.60;99.90;;;;;;5048033;28;20040;-59
2024/01/05 02:28:24;;;;;;;29.67;17.35;;;3.50;99.90;;;;;;5051625;28;20075;-59
2024/01/05 02:30:49;;;;;;;34.55;18.60;;;3.50;99.90;;;;;;5045413;28;20051;-59
2024/01/05 02:33:15;;;;;;;25.23;15.40;;;3.50;99.90;;;;;;5032313;28;20036;-60
2024/01/05 02:35:41;;;;;;;34.20;15.98;;;3.50;99.90;;;;;;5063578;28;20056;-58
2024/01/05 02:38:07;;;;;;;30.65;16.90;;;3.50;99.90;;;;;;5051968;28;20098;-59
2024/01/05 02:40:33;;;;;;;29.67;16.67;;;3.60;99.90;;;;;;5053249;28;20412;-57
2024/01/05 02:42:59;;;;;;;28.67;15.60;;;3.50;99.90;;;;;;5030684;28;21984;-59
2024/01/05 02:45:25;;;;;;;26.90;15.57;;;3.50;99.90;;;;;;5048547;28;20169;-59
2024/01/05 02:47:51;;;;;;;27.67;15.52;;;3.50;99.90;;;;;;5046172;28;20037;-59
2024/01/05 02:50:18;;;;;;;30.83;14.90;;;3.50;99.90;;;;;;5043489;28;20524;-59
2024/01/05 02:52:44;;;;;;;31.60;15.75;;;3.50;99.90;;;;;;5053546;28;20032;-59
2024/01/05 02:55:10;;;;;;;27.02;14.98;;;3.60;99.90;;;;;;5029507;28;20123;-59
2024/01/05 02:57:37;;;;;;;22.80;12.80;;;3.60;99.90;;;;;;5062677;28;20505;-59
2024/01/05 03:00:03;;;;;;;24.50;13.48;;;3.50;99.90;;;;;;5031357;28;20065;-59
2024/01/05 03:02:29;;;;;;;23.40;13.63;;;3.50;99.90;;;;;;5016251;28;20038;-59
2024/01/05 03:04:56;;;;;;;25.65;14.15;;;3.50;99.90;;;;;;5062224;28;20040;-59
2024/01/05 03:07:22;;;;;;;23.48;12.77;;;3.50;99.90;;;;;;5028775;28;20051;-59
2024/01/05 03:09:48;;;;;;;29.73;14.55;;;3.50;99.90;;;;;;5057218;28;20036;-59
2024/01/05 03:12:14;;;;;;;26.17;13.90;;;3.50;99.90;;;;;;5049522;28;20077;-60
2024/01/05 03:14:39;;;;;;;26.58;14.35;;;3.60;99.90;;;;;;5032059;28;20096;-59
2024/01/05 03:17:05;;;;;;;26.30;14.15;;;3.50;99.90;;;;;;5029262;28;20047;-59
2024/01/05 03:19:31;;;;;;;26.48;13.90;;;3.50;99.90;;;;;;5065153;28;20043;-59
2024/01/05 03:21:57;;;;;;;24.20;13.43;;;3.50;99.90;;;;;;5033278;28;20044;-59
2024/01/05 03:24:23;;;;;;;25.63;13.65;;;3.60;99.90;;;;;;5045490;28;20044;-60
2024/01/05 03:26:49;;;;;;;23.75;13.27;;;3.60;99.90;;;;;;5059447;28;20036;-59
2024/01/05 03:29:15;;;;;;;25.75;13.85;;;3.50;99.90;;;;;;5040991;28;20040;-60
2024/01/05 03:31:44;;;;;;;29.92;15.13;;;3.50;99.90;;;;;;5030151;28;20036;-59
2024/01/05 03:34:10;;;;;;;24.85;13.05;;;3.50;99.90;;;;;;5032281;28;20483;-59
2024/01/05 03:36:36;;;;;;;23.33;13.00;;;3.50;99.90;;;;;;5049422;28;20040;-59
2024/01/05 03:39:02;;;;;;;29.52;14.75;;;3.50;99.90;;;;;;5028325;28;20123;-59
2024/01/05 03:41:28;;;;;;;30.20;14.13;;;3.50;99.90;;;;;;5052019;28;20405;-59
2024/01/05 03:43:54;;;;;;;30.60;14.65;;;3.40;99.90;;;;;;5066264;28;20025;-59
2024/01/05 03:46:20;;;;;;;27.17;15.00;;;3.50;99.90;;;;;;5044376;28;20126;-59
2024/01/05 03:48:46;;;;;;;28.83;14.63;;;3.50;99.90;;;;;;5051494;28;20127;-60
2024/01/05 03:51:11;;;;;;;25.85;13.98;;;3.50;99.90;;;;;;5031546;28;20401;-59
2024/01/05 03:53:37;;;;;;;26.42;14.00;;;3.50;99.90;;;;;;5037069;28;20051;-58
2024/01/05 03:56:03;;;;;;;23.92;14.30;;;3.40;99.90;;;;;;5047280;28;20048;-59
2024/01/05 03:58:29;;;;;;;23.45;12.90;;;3.50;99.90;;;;;;5063939;28;20137;-59
2024/01/05 04:00:55;;;;;;;24.42;13.98;;;3.50;99.90;;;;;;5047220;28;20283;-59
2024/01/05 04:03:20;;;;;;;23.80;11.93;;;3.50;99.90;;;;;;5048957;28;20028;-59
2024/01/05 04:05:46;;;;;;;21.48;13.10;;;3.50;99.90;;;;;;5049195;28;20118;-57
2024/01/05 04:08:12;;;;;;;21.77;12.00;;;3.50;99.90;;;;;;5041439;28;20279;-57
2024/01/05 04:10:38;;;;;;;22.50;12.73;;;3.50;99.90;;;;;;5055995;28;20036;-59
2024/01/05 04:13:05;;;;;;;21.30;12.98;;;3.40;99.90;;;;;;5055268;28;20047;-60
2024/01/05 04:15:38;;;;;;;22.23;11.85;;;3.50;99.90;;;;;;5031435;28;21830;-59
2024/01/05 04:18:04;;;;;;;27.92;13.80;;;3.40;99.90;;;;;;5060994;28;20131;-59
2024/01/05 04:20:30;;;;;;;23.08;12.63;;;3.50;99.90;;;;;;5056685;28;20063;-57
2024/01/05 04:22:56;;;;;;;21.30;11.55;;;3.40;99.90;;;;;;5066075;28;20071;-59
2024/01/05 04:25:21;;;;;;;24.70;13.00;;;3.40;99.90;;;;;;5033305;28;20127;-62
2024/01/05 04:27:47;;;;;;;21.75;12.45;;;3.50;99.90;;;;;;5051133;28;20530;-62
2024/01/05 04:30:13;;;;;;;23.35;12.95;;;3.50;99.90;;;;;;5017466;28;20101;-61
2024/01/05 04:32:39;;;;;;;20.88;12.25;;;3.50;99.90;;;;;;5068062;28;20045;-62
2024/01/05 04:35:05;;;;;;;28.60;12.43;;;3.50;99.90;;;;;;5047157;28;21286;-59
2024/01/05 04:37:30;;;;;;;22.00;12.60;;;3.50;99.90;;;;;;5048823;28;20123;-62
2024/01/05 04:39:56;;;;;;;26.55;13.43;;;3.50;99.90;;;;;;5047883;28;20170;-60
2024/01/05 04:42:22;;;;;;;24.55;13.15;;;3.50;99.90;;;;;;5036099;28;20539;-58
2024/01/05 04:44:51;;;;;;;24.45;13.98;;;3.50;99.90;;;;;;5042005;28;20105;-60
2024/01/05 04:47:17;;;;;;;22.55;12.65;;;3.60;99.90;;;;;;5069122;28;20359;-60
2024/01/05 04:49:43;;;;;;;25.63;12.82;;;3.60;99.90;;;;;;5055704;28;20044;-60
2024/01/05 04:52:09;;;;;;;22.92;13.18;;;3.50;99.90;;;;;;5051147;28;20477;-60
2024/01/05 04:54:34;;;;;;;25.88;14.15;;;3.50;99.90;;;;;;5045791;28;20055;-59
2024/01/05 04:57:01;;;;;;;23.48;12.80;;;3.50;99.90;;;;;;5052761;28;20040;-60
2024/01/05 04:59:28;;;;;;;20.73;11.93;;;3.60;99.90;;;;;;5050100;28;20045;-60
2024/01/05 05:01:53;;;;;;;22.15;12.52;;;3.60;99.90;;;;;;5050774;28;20036;-60
2024/01/05 05:04:19;;;;;;;22.48;11.85;;;3.60;99.90;;;;;;5035010;28;20045;-60
2024/01/05 05:06:45;;;;;;;22.48;12.90;;;3.60;99.90;;;;;;5066684;28;20079;-59
2024/01/05 05:09:12;;;;;;;24.15;11.55;;;3.60;99.90;;;;;;5027832;28;20041;-60
2024/01/05 05:11:39;;;;;;;22.33;12.85;;;3.60;99.90;;;;;;5051672;28;20111;-60
2024/01/05 05:14:05;;;;;;;20.00;11.68;;;3.60;99.90;;;;;;5050245;28;20051;-60
2024/01/05 05:16:32;;;;;;;23.38;11.48;;;3.60;99.90;;;;;;5052990;28;20041;-60
2024/01/05 05:18:58;;;;;;;21.13;12.52;;;3.60;99.90;;;;;;5044791;28;20052;-60
2024/01/05 05:21:26;;;;;;;23.58;12.48;;;3.70;99.90;;;;;;5049468;28;20052;-59
2024/01/05 05:23:51;;;;;;;21.73;11.82;;;3.70;99.90;;;;;;5050443;28;20044;-59
2024/01/05 05:26:17;;;;;;;23.13;12.57;;;3.70;99.90;;;;;;5051254;28;20048;-60
2024/01/05 05:28:43;;;;;;;23.77;12.73;;;3.70;99.90;;;;;;5033351;28;20450;-60
2024/01/05 05:31:09;;;;;;;21.10;12.25;;;3.70;99.90;;;;;;5045422;22;20048;-62
2024/01/05 05:33:35;;;;;;;24.02;13.05;;;3.70;99.90;;;;;;5047351;28;20512;-61
2024/01/05 05:36:01;;;;;;;26.50;13.07;;;3.70;99.90;;;;;;5028147;28;20117;-61
2024/01/05 05:38:26;;;;;;;22.88;12.00;;;3.70;99.90;;;;;;5033461;28;20096;-61
2024/01/05 05:40:52;;;;;;;27.05;13.55;;;3.80;99.90;;;;;;5032363;28;20029;-61
2024/01/05 05:43:18;;;;;;;29.02;13.45;;;3.80;99.90;;;;;;5044126;28;20587;-61
2024/01/05 05:45:43;;;;;;;27.50;14.85;;;3.80;99.90;;;;;;5044031;28;20402;-61
2024/01/05 05:48:10;;;;;;;28.05;14.23;;;3.80;99.90;;;;;;5027017;28;20045;-61
2024/01/05 05:50:36;;;;;;;26.05;13.15;;;3.80;99.90;;;;;;5027750;28;20044;-61
2024/01/05 05:53:02;;;;;;;27.02;14.23;;;3.80;99.90;;;;;;5049889;28;20041;-61
2024/01/05 05:55:28;;;;;;;24.02;12.95;;;3.80;99.90;;;;;;5049546;28;20347;-61
2024/01/05 05:57:53;;;;;;;26.20;13.95;;;3.80;99.90;;;;;;5042088;28;20056;-61
2024/01/05 06:00:19;;;;;;;25.05;13.68;;;3.80;99.90;;;;;;5029138;28;20401;-61
2024/01/05 06:02:45;;;;;;;20.92;12.60;;;3.80;99.90;;;;;;5044510;28;20044;-61
2024/01/05 06:05:11;;;;;;;23.45;13.20;;;3.80;99.90;;;;;;5033934;28;20131;-61
2024/01/05 06:07:36;;;;;;;27.10;14.18;;;3.80;99.90;;;;;;5045509;28;20033;-62
2024/01/05 06:10:02;;;;;;;25.25;14.38;;;3.80;99.90;;;;;;5035958;28;20445;-62
2024/01/05 06:12:28;;;;;;;27.17;15.23;;;3.80;99.90;;;;;;5044273;28;20067;-61
2024/01/05 06:14:54;;;;;;;30.27;15.02;;;3.80;99.90;;;;;;5031097;28;20103;-61
2024/01/05 06:17:20;;;;;;;26.75;14.15;;;3.90;99.90;;;;;;5014731;28;20124;-61
2024/01/05 06:19:45;;;;;;;26.02;16.08;;;3.90;99.90;;;;;;5042285;28;20080;-61
2024/01/05 06:22:11;;;;;;;26.42;15.55;;;3.80;99.90;;;;;;5048887;28;20037;-61
2024/01/05 06:24:37;;;;;;;27.38;14.65;;;3.80;99.90;;;;;;5043146;28;20033;-61
2024/01/05 06:27:02;;;;;;;27.92;16.55;;;3.80;99.90;;;;;;5027491;28;20052;-61
2024/01/05 06:29:28;;;;;;;26.67;14.57;;;3.80;99.90;;;;;;5042786;28;20045;-62
2024/01/05 06:31:54;;;;;;;26.20;12.93;;;3.90;99.90;;;;;;5043934;28;20525;-62
2024/01/05 06:34:20;;;;;;;22.52;13.52;;;3.90;99.90;;;;;;5044049;28;20044;-62
2024/01/05 06:36:46;;;;;;;23.52;13.38;;;3.90;99.90;;;;;;5046247;28;20045;-61
2024/01/05 06:39:11;;;;;;;25.75;13.65;;;3.90;99.90;;;;;;5047718;28;20048;-61
2024/01/05 06:41:37;;;;;;;23.13;13.73;;;3.90;99.90;;;;;;5041290;28;20069;-62
2024/01/05 06:44:04;;;;;;;23.13;12.93;;;3.90;99.90;;;;;;5040202;28;20100;-62
2024/01/05 06:46:30;;;;;;;25.65;14.30;;;3.90;99.90;;;;;;5042526;28;20048;-61
2024/01/05 06:48:57;;;;;;;25.63;14.07;;;3.90;99.90;;;;;;5044855;28;20628;-62
2024/01/05 06:51:29;;;;;;;28.40;15.60;;;3.90;99.90;;;;;;5013674;28;20103;-62
2024/01/05 06:53:57;;;;;;;24.77;14.80;;;3.90;99.90;;;;;;5047407;28;20541;-62
2024/01/05 06:56:23;;;;;;;28.92;15.90;;;3.90;99.90;;;;;;5040382;28;20041;-62
2024/01/05 06:58:50;;;;;;;31.60;15.93;;;3.90;99.90;;;;;;5023776;28;20335;-62
2024/01/05 07:01:17;;;;;;;31.98;16.50;;;4.00;99.90;;;;;;5037356;28;20112;-61
2024/01/05 07:03:43;;;;;;;32.33;16.27;;;4.00;99.90;;;;;;5040102;28;21072;-62
2024/01/05 07:06:11;;;;;;;84.38;20.58;;;4.00;99.90;;;;;;5038938;28;20071;-62
2024/01/05 07:08:37;;;;;;;30.55;15.77;;;4.00;99.90;;;;;;5022192;28;20559;-62
2024/01/05 07:11:02;;;;;;;37.03;17.08;;;4.00;99.90;;;;;;5026814;28;20076;-61
2024/01/05 07:13:28;;;;;;;35.88;20.95;;;4.00;99.90;;;;;;5029184;28;20032;-61
2024/01/05 07:15:55;;;;;;;60.22;21.08;;;3.90;99.90;;;;;;5042099;28;20033;-62
2024/01/05 07:18:20;;;;;;;31.45;16.05;;;4.00;99.90;;;;;;5041208;28;20083;-62
2024/01/05 07:20:46;;;;;;;56.83;20.17;;;4.00;99.90;;;;;;5025913;28;20490;-62
2024/01/05 07:23:12;;;;;;;32.75;19.80;;;4.00;99.90;;;;;;5028901;28;20359;-61
2024/01/05 07:25:37;;;;;;;41.00;19.58;;;4.00;99.90;;;;;;5023876;28;20087;-61
2024/01/05 07:28:04;;;;;;;47.95;18.15;;;4.10;99.90;;;;;;5042602;28;20048;-61
2024/01/05 07:30:29;;;;;;;55.40;18.90;;;4.10;99.90;;;;;;5041997;28;20051;-62
2024/01/05 07:32:55;;;;;;;35.08;17.23;;;4.10;99.90;;;;;;5027388;28;20036;-62
2024/01/05 07:35:21;;;;;;;35.55;17.67;;;4.10;99.90;;;;;;5044599;28;20048;-62
2024/01/05 07:37:46;;;;;;;36.15;16.58;;;4.20;99.90;;;;;;5041816;28;20037;-61
2024/01/05 07:40:13;;;;;;;46.78;16.73;;;4.20;99.90;;;;;;5026152;28;20493;-64
2024/01/05 07:42:39;;;;;;;49.20;17.17;;;4.20;99.90;;;;;;5041596;28;20041;-61
2024/01/05 07:45:05;;;;;;;32.88;16.80;;;4.20;99.90;;;;;;5043153;28;20048;-61
2024/01/05 07:47:31;;;;;;;35.25;17.17;;;4.20;99.90;;;;;;5010825;28;20478;-62
2024/01/05 07:49:57;;;;;;;29.83;16.63;;;4.30;99.90;;;;;;5045839;28;20071;-62
2024/01/05 07:52:23;;;;;;;30.35;15.60;;;4.20;99.90;;;;;;5045029;28;20493;-61
2024/01/05 07:54:49;;;;;;;27.30;16.10;;;4.30;99.90;;;;;;5019778;28;20113;-61
2024/01/05 07:57:14;;;;;;;27.48;15.25;;;4.30;99.90;;;;;;5042520;28;20451;-61
2024/01/05 07:59:40;;;;;;;26.13;14.73;;;4.30;99.90;;;;;;5039762;28;20049;-61
2024/01/05 08:02:06;;;;;;;29.00;15.10;;;4.30;99.90;;;;;;5043658;28;20044;-61
2024/01/05 08:04:31;;;;;;;32.03;15.85;;;4.30;99.90;;;;;;5039213;28;20233;-61
2024/01/05 08:06:58;;;;;;;28.30;16.38;;;4.30;99.90;;;;;;5046929;28;20048;-61
2024/01/05 08:09:23;;;;;;;29.55;16.23;;;4.30;99.90;;;;;;5038474;28;20098;-62
2024/01/05 08:11:49;;;;;;;29.02;15.90;;;4.30;99.90;;;;;;5038539;28;20519;-61
2024/01/05 08:14:15;;;;;;;27.15;16.10;;;4.30;99.90;;;;;;5044422;28;20041;-61
2024/01/05 08:16:40;;;;;;;29.95;15.82;;;4.30;99.90;;;;;;5040493;28;20235;-61
2024/01/05 08:19:06;;;;;;;32.05;15.98;;;4.40;99.90;;;;;;5024071;28;20401;-61
2024/01/05 08:21:32;;;;;;;28.65;14.88;;;4.40;99.90;;;;;;5039074;28;20045;-61
2024/01/05 08:23:57;;;;;;;27.05;15.48;;;4.40;99.90;;;;;;5043745;28;20302;-61
2024/01/05 08:26:23;;;;;;;28.52;16.33;;;4.40;99.90;;;;;;5026092;28;20424;-61
2024/01/05 08:28:49;;;;;;;32.05;16.50;;;4.40;99.90;;;;;;5042304;28;20041;-61
2024/01/05 08:31:14;;;;;;;29.95;15.77;;;4.40;99.90;;;;;;5036143;28;20814;-61
2024/01/05 08:33:40;;;;;;;31.50;16.45;;;4.50;99.90;;;;;;5046200;28;20036;-61
2024/01/05 08:36:07;;;;;;;33.22;16.77;;;4.50;99.90;;;;;;5043528;28;20117;-61
2024/01/05 08:38:33;;;;;;;35.10;16.77;;;4.50;99.90;;;;;;5055132;28;20047;-62
2024/01/05 08:40:59;;;;;;;32.10;17.58;;;4.50;99.90;;;;;;5040776;28;20036;-61
2024/01/05 08:43:25;;;;;;;36.97;17.20;;;4.50;99.90;;;;;;5053101;28;20104;-61
2024/01/05 08:45:50;;;;;;;36.92;17.67;;;4.60;99.90;;;;;;5028351;28;20111;-61
2024/01/05 08:48:16;;;;;;;32.28;17.55;;;4.60;99.90;;;;;;5026395;28;20052;-62
2024/01/05 08:50:42;;;;;;;33.17;18.20;;;4.60;99.90;;;;;;5041492;28;20441;-61
2024/01/05 08:53:09;;;;;;;34.65;17.33;;;4.60;99.90;;;;;;5014597;28;20044;-61
2024/01/05 08:55:35;;;;;;;34.30;18.25;;;4.70;99.90;;;;;;5042843;28;20413;-61
2024/01/05 08:58:04;;;;;;;37.28;18.80;;;4.60;99.90;;;;;;5051538;28;20132;-61
2024/01/05 09:00:30;;;;;;;34.95;18.50;;;4.60;99.90;;;;;;5028226;28;20055;-61
2024/01/05 09:02:55;;;;;;;44.65;19.63;;;4.70;99.90;;;;;;5042334;28;20041;-61
2024/01/05 09:05:21;;;;;;;34.58;18.63;;;4.70;99.90;;;;;;5043970;28;20037;-61
2024/01/05 09:07:50;;;;;;;34.05;18.75;;;4.70;99.90;;;;;;5038695;28;20659;-62
2024/01/05 09:10:16;;;;;;;31.98;16.98;;;4.70;99.90;;;;;;5025618;28;20098;-61
2024/01/05 09:12:41;;;;;;;33.25;18.08;;;4.80;99.90;;;;;;5027368;28;20525;-61
2024/01/05 09:15:08;;;;;;;31.75;17.30;;;4.80;99.90;;;;;;5045601;28;20094;-61
2024/01/05 09:17:34;;;;;;;37.85;18.75;;;4.80;99.90;;;;;;5049438;28;20124;-61
2024/01/05 09:20:00;;;;;;;37.95;18.15;;;4.80;99.90;;;;;;5024954;28;20204;-61
2024/01/05 09:22:25;;;;;;;36.42;19.00;;;4.80;99.90;;;;;;5043986;28;20451;-61
2024/01/05 09:24:52;;;;;;;37.88;19.30;;;4.90;99.90;;;;;;5047761;28;20045;-61
2024/01/05 09:27:18;;;;;;;33.63;18.50;;;4.90;99.90;;;;;;5024029;28;20182;-61
2024/01/05 09:29:43;;;;;;;36.38;18.42;;;4.90;99.90;;;;;;5026352;28;20128;-61
2024/01/05 09:32:09;;;;;;;36.25;19.63;;;4.90;99.90;;;;;;5024659;28;20501;-61
2024/01/05 09:34:35;;;;;;;37.30;19.58;;;4.90;99.90;;;;;;5047042;28;20056;-61
2024/01/05 09:37:00;;;;;;;36.08;20.70;;;5.00;99.90;;;;;;5036393;28;20266;-61
2024/01/05 09:39:26;;;;;;;36.85;19.52;;;5.00;99.90;;;;;;5022380;28;20064;-61
2024/01/05 09:41:53;;;;;;;35.08;19.42;;;5.00;99.90;;;;;;5012583;28;20394;-61
2024/01/05 09:44:19;;;;;;;38.35;20.80;;;5.00;99.90;;;;;;5042816;28;20045;-61
2024/01/05 09:46:45;;;;;;;37.10;20.70;;;5.00;99.90;;;;;;5041546;28;20052;-61
2024/01/05 09:49:13;;;;;;;35.10;19.55;;;5.00;99.90;;;;;;5038161;28;20397;-61
2024/01/05 09:51:39;;;;;;;34.60;19.58;;;5.00;99.90;;;;;;5041288;28;20052;-61
2024/01/05 09:54:05;;;;;;;30.92;18.17;;;5.10;99.90;;;;;;5035878;28;20037;-61
2024/01/05 09:56:32;;;;;;;28.75;17.58;;;5.10;99.90;;;;;;5027939;28;20086;-61
2024/01/05 09:58:58;;;;;;;36.60;22.80;;;5.10;99.90;;;;;;5037415;28;20309;-61
2024/01/05 10:01:26;;;;;;;33.15;19.10;;;5.10;99.90;;;;;;5009186;28;20477;-61
2024/01/05 10:03:56;;;;;;;33.72;19.48;;;5.10;99.90;;;;;;5038728;28;20044;-61
2024/01/05 10:06:24;;;;;;;31.55;20.23;;;5.10;99.90;;;;;;5041299;28;20525;-61
2024/01/05 10:08:54;;;;;;;29.63;17.50;;;5.20;99.90;;;;;;5039147;28;20032;-61
2024/01/05 10:11:36;;;;;;;30.08;16.58;;;5.20;99.90;;;;;;5040381;28;20047;-61
2024/01/05 10:14:06;;;;;;;30.08;17.73;;;5.20;99.90;;;;;;5041367;28;20437;-61
2024/01/05 10:16:37;;;;;;;23.55;14.27;;;5.30;99.90;;;;;;5044877;28;20045;-61
2024/01/05 10:19:15;;;;;;;26.05;16.50;;;5.30;99.90;;;;;;5039105;28;20041;-61
2024/01/05 10:21:43;;;;;;;27.13;15.27;;;5.30;99.90;;;;;;5058351;28;20044;-61
2024/01/05 10:24:26;;;;;;;24.77;16.08;;;5.30;99.90;;;;;;5026337;28;20301;-61
2024/01/05 10:27:06;;;;;;;23.43;13.87;;;5.30;99.90;;;;;;5044150;28;20120;-61
2024/01/05 10:29:43;;;;;;;24.08;15.38;;;5.30;99.90;;;;;;5043647;28;20486;-61
2024/01/05 10:32:13;;;;;;;22.55;13.73;;;5.40;99.90;;;;;;5041521;28;20517;-61
2024/01/05 10:34:46;;;;;;;22.67;13.90;;;5.40;99.90;;;;;;5030687;28;20032;-61
2024/01/05 10:37:13;;;;;;;25.17;14.25;;;5.40;99.90;;;;;;5039790;28;20102;-61
2024/01/05 10:39:45;;;;;;;23.02;13.85;;;5.40;99.90;;;;;;5025486;28;20044;-61
2024/01/05 10:42:30;;;;;;;25.50;14.23;;;5.40;99.90;;;;;;5037023;28;20048;-61
2024/01/05 10:44:57;;;;;;;24.10;13.52;;;5.50;99.90;;;;;;5037656;28;20085;-61
2024/01/05 10:47:31;;;;;;;21.25;12.68;;;5.50;99.90;;;;;;5040451;28;20521;-61
2024/01/05 10:49:57;;;;;;;23.05;13.75;;;5.50;99.90;;;;;;5044729;28;20045;-61
2024/01/05 10:52:25;;;;;;;23.83;13.40;;;5.50;99.90;;;;;;5044690;28;20551;-61
2024/01/05 10:54:52;;;;;;;23.63;13.20;;;5.60;99.90;;;;;;5038016;28;20123;-61
2024/01/05 10:57:20;;;;;;;22.58;13.35;;;5.60;99.90;;;;;;5038754;28;20038;-61
2024/01/05 10:59:46;;;;;;;23.52;13.00;;;5.60;99.90;;;;;;5028121;28;20080;-61
2024/01/05 11:02:33;;;;;;;22.10;13.55;;;5.60;99.90;;;;;;5041117;28;20041;-61
2024/01/05 11:05:09;;;;;;;23.60;13.40;;;5.60;99.90;;;;;;5037778;28;20405;-60
2024/01/05 11:07:36;;;;;;;28.27;14.80;;;5.60;99.90;;;;;;5042148;28;20504;-61
2024/01/05 11:10:21;;;;;;;37.50;21.25;;;5.60;99.90;;;;;;5039219;28;20768;-61
2024/01/05 11:12:52;;;;;;;36.45;21.83;;;5.70;99.90;;;;;;5042769;28;20033;-61
2024/01/05 11:15:36;;;;;;;29.17;19.08;;;5.70;99.90;;;;;;5054827;28;20045;-61
2024/01/05 11:18:28;;;;;;;31.38;18.90;;;5.70;99.90;;;;;;5039191;28;20064;-61
2024/01/05 11:21:47;;;;;;;30.52;17.80;;;5.80;99.90;;;;;;5041581;28;20043;-61
2024/01/05 11:24:15;;;;;;;29.58;18.58;;;5.80;99.90;;;;;;4944309;28;20042;-61
2024/01/05 11:26:44;;;;;;;28.98;17.48;;;5.90;99.90;;;;;;5046163;28;20427;-61
2024/01/05 11:29:12;;;;;;;32.25;17.67;;;6.00;99.90;;;;;;5024217;28;20041;-61
2024/01/05 11:31:47;;;;;;;25.15;15.05;;;6.00;99.90;;;;;;5046953;23;20535;-60
2024/01/05 11:34:35;;;;;;;30.05;17.52;;;6.00;99.90;;;;;;5044671;28;20047;-60
2024/01/05 11:37:04;;;;;;;24.67;14.85;;;6.00;99.90;;;;;;5045665;28;20053;-60
2024/01/05 11:39:47;;;;;;;29.05;15.93;;;6.00;99.90;;;;;;5044676;28;20041;-61
2024/01/05 11:42:25;;;;;;;25.90;14.80;;;6.00;99.90;;;;;;5022790;28;20481;-61
2024/01/05 11:44:58;;;;;;;22.10;13.45;;;6.00;99.90;;;;;;5044558;28;20071;-61
2024/01/05 11:47:40;;;;;;;28.85;16.10;;;6.10;99.90;;;;;;5011040;28;20140;-61
2024/01/05 11:50:26;;;;;;;27.20;15.82;;;6.10;99.90;;;;;;5006123;28;20053;-61
2024/01/05 11:53:14;;;;;;;27.98;15.48;;;6.10;99.90;;;;;;5024344;28;20040;-61
2024/01/05 11:55:55;;;;;;;24.13;14.50;;;6.10;99.90;;;;;;5021172;28;20131;-61
2024/01/05 11:58:28;;;;;;;24.67;14.48;;;6.10;99.90;;;;;;5024398;28;20041;-61
2024/01/05 12:00:58;;;;;;;25.35;15.65;;;6.10;99.90;;;;;;5023828;28;20048;-61
2024/01/05 12:03:24;;;;;;;23.30;14.68;;;6.10;99.90;;;;;;5027596;28;20041;-61
2024/01/05 12:05:52;;;;;;;24.70;14.07;;;6.10;99.90;;;;;;5011663;28;20493;-61
2024/01/05 12:08:18;;;;;;;24.00;14.40;;;6.10;99.90;;;;;;5026559;28;20048;-61
2024/01/05 12:10:44;;;;;;;24.33;14.80;;;6.10;99.90;;;;;;5041670;28;20275;-61
2024/01/05 12:13:10;;;;;;;22.92;14.13;;;6.20;99.90;;;;;;4997134;28;20037;-61
2024/01/05 12:15:35;;;;;;;23.98;14.00;;;6.20;99.90;;;;;;5023466;28;20063;-61
2024/01/05 12:18:07;;;;;;;26.23;15.13;;;6.20;99.90;;;;;;5021838;28;20122;-61
2024/01/05 12:20:37;;;;;;;26.70;13.68;;;6.20;99.90;;;;;;5014620;28;20041;-61
2024/01/05 12:23:03;;;;;;;22.27;13.93;;;6.30;99.90;;;;;;5026636;28;20033;-61
2024/01/05 12:25:30;;;;;;;22.27;12.70;;;6.30;99.90;;;;;;5027401;28;20516;-61
2024/01/05 12:27:58;;;;;;;45.67;22.02;;;6.20;99.90;;;;;;5009626;28;20037;-61
2024/01/05 12:30:24;;;;;;;32.50;18.33;;;6.30;99.90;;;;;;5047478;28;20044;-61
2024/01/05 12:32:50;;;;;;;26.45;16.65;;;6.30;99.90;;;;;;5012984;28;20106;-61
2024/01/05 12:35:16;;;;;;;22.85;13.65;;;6.30;99.90;;;;;;5011569;28;20052;-61
2024/01/05 12:37:52;;;;;;;24.02;14.27;;;6.30;99.90;;;;;;5028099;28;20045;-61